sensor_id;sensor_type;location;lat;lon;timestamp;P1;durP1;ratioP1;P2;durP2;ratioP2
50337;SDS011;46221;51.178;5.900;2023-04-06T00:01:47;6.50;;;3.50;;
50337;SDS011;46221;51.178;5.900;2023-04-06T00:04:13;5.50;;;3.95;;
50337;SDS011;46221;51.178;5.900;2023-04-06T00:06:40;5.93;;;3.80;;
50337;SDS011;46221;51.178;5.900;2023-04-06T00:09:06;5.60;;;3.70;;
50337;SDS011;46221;51.178;5.900;2023-04-06T00:11:33;4.85;;;3.42;;
50337;SDS011;46221;51.178;5.900;2023-04-06T00:13:59;4.80;;;3.22;;
50337;SDS011;46221;51.178;5.900;2023-04-06T00:16:26;6.63;;;3.50;;
50337;SDS011;46221;51.178;5.900;2023-04-06T00:18:55;5.65;;;3.45;;
50337;SDS011;46221;51.178;5.900;2023-04-06T00:21:22;4.53;;;3.30;;
50337;SDS011;46221;51.178;5.900;2023-04-06T00:23:48;5.18;;;3.75;;
50337;SDS011;46221;51.178;5.900;2023-04-06T00:26:14;5.78;;;3.60;;
50337;SDS011;46221;51.178;5.900;2023-04-06T00:28:41;4.88;;;3.65;;
50337;SDS011;46221;51.178;5.900;2023-04-06T00:31:07;5.20;;;3.53;;
50337;SDS011;46221;51.178;5.900;2023-04-06T00:33:34;5.50;;;3.58;;
50337;SDS011;46221;51.178;5.900;2023-04-06T00:36:00;5.20;;;3.58;;
50337;SDS011;46221;51.178;5.900;2023-04-06T00:38:26;5.43;;;3.60;;
50337;SDS011;46221;51.178;5.900;2023-04-06T00:40:53;6.18;;;3.90;;
50337;SDS011;46221;51.178;5.900;2023-04-06T00:43:19;5.97;;;3.97;;
50337;SDS011;46221;51.178;5.900;2023-04-06T00:45:45;5.97;;;3.97;;
50337;SDS011;46221;51.178;5.900;2023-04-06T00:48:12;5.90;;;4.03;;
50337;SDS011;46221;51.178;5.900;2023-04-06T00:50:39;5.22;;;3.88;;
50337;SDS011;46221;51.178;5.900;2023-04-06T00:53:05;5.82;;;3.90;;
50337;SDS011;46221;51.178;5.900;2023-04-06T00:55:32;5.50;;;3.58;;
50337;SDS011;46221;51.178;5.900;2023-04-06T00:57:58;6.00;;;4.13;;
50337;SDS011;46221;51.178;5.900;2023-04-06T01:00:25;5.78;;;3.67;;
50337;SDS011;46221;51.178;5.900;2023-04-06T01:02:52;5.65;;;4.15;;
50337;SDS011;46221;51.178;5.900;2023-04-06T01:05:18;7.65;;;4.72;;
50337;SDS011;46221;51.178;5.900;2023-04-06T01:07:45;5.57;;;3.88;;
50337;SDS011;46221;51.178;5.900;2023-04-06T01:10:21;5.97;;;4.50;;
50337;SDS011;46221;51.178;5.900;2023-04-06T01:15:14;5.40;;;3.87;;
50337;SDS011;46221;51.178;5.900;2023-04-06T01:17:41;5.72;;;4.10;;
50337;SDS011;46221;51.178;5.900;2023-04-06T01:20:08;6.65;;;4.25;;
50337;SDS011;46221;51.178;5.900;2023-04-06T01:22:34;5.78;;;4.53;;
50337;SDS011;46221;51.178;5.900;2023-04-06T01:25:01;7.57;;;4.82;;
50337;SDS011;46221;51.178;5.900;2023-04-06T01:27:27;6.63;;;4.68;;
50337;SDS011;46221;51.178;5.900;2023-04-06T01:29:56;6.93;;;4.82;;
50337;SDS011;46221;51.178;5.900;2023-04-06T01:32:22;5.65;;;4.00;;
50337;SDS011;46221;51.178;5.900;2023-04-06T01:34:48;6.40;;;4.10;;
50337;SDS011;46221;51.178;5.900;2023-04-06T01:37:15;6.15;;;4.38;;
50337;SDS011;46221;51.178;5.900;2023-04-06T01:39:42;6.40;;;4.07;;
50337;SDS011;46221;51.178;5.900;2023-04-06T01:42:08;7.47;;;5.05;;
50337;SDS011;46221;51.178;5.900;2023-04-06T01:44:35;7.47;;;4.53;;
50337;SDS011;46221;51.178;5.900;2023-04-06T01:47:01;6.00;;;4.35;;
50337;SDS011;46221;51.178;5.900;2023-04-06T01:49:28;6.38;;;4.35;;
50337;SDS011;46221;51.178;5.900;2023-04-06T01:51:54;6.50;;;4.57;;
50337;SDS011;46221;51.178;5.900;2023-04-06T01:54:21;7.30;;;4.68;;
50337;SDS011;46221;51.178;5.900;2023-04-06T01:56:47;5.65;;;4.35;;
50337;SDS011;46221;51.178;5.900;2023-04-06T01:59:15;6.15;;;4.97;;
50337;SDS011;46221;51.178;5.900;2023-04-06T02:01:41;6.57;;;4.68;;
50337;SDS011;46221;51.178;5.900;2023-04-06T02:04:07;7.07;;;4.82;;
50337;SDS011;46221;51.178;5.900;2023-04-06T02:06:34;6.45;;;4.70;;
50337;SDS011;46221;51.178;5.900;2023-04-06T02:09:00;6.85;;;5.30;;
50337;SDS011;46221;51.178;5.900;2023-04-06T02:11:27;7.03;;;4.60;;
50337;SDS011;46221;51.178;5.900;2023-04-06T02:13:53;7.45;;;4.70;;
50337;SDS011;46221;51.178;5.900;2023-04-06T02:16:20;7.07;;;5.00;;
50337;SDS011;46221;51.178;5.900;2023-04-06T02:18:46;6.72;;;5.32;;
50337;SDS011;46221;51.178;5.900;2023-04-06T02:21:13;7.45;;;5.18;;
50337;SDS011;46221;51.178;5.900;2023-04-06T02:23:39;6.38;;;4.55;;
50337;SDS011;46221;51.178;5.900;2023-04-06T02:26:06;6.55;;;4.80;;
50337;SDS011;46221;51.178;5.900;2023-04-06T02:28:32;8.27;;;5.30;;
50337;SDS011;46221;51.178;5.900;2023-04-06T02:30:58;6.70;;;4.80;;
50337;SDS011;46221;51.178;5.900;2023-04-06T02:33:25;6.05;;;4.93;;
50337;SDS011;46221;51.178;5.900;2023-04-06T02:35:52;7.03;;;5.05;;
50337;SDS011;46221;51.178;5.900;2023-04-06T02:38:18;6.60;;;5.03;;
50337;SDS011;46221;51.178;5.900;2023-04-06T02:40:44;6.55;;;4.93;;
50337;SDS011;46221;51.178;5.900;2023-04-06T02:43:11;6.85;;;5.40;;
50337;SDS011;46221;51.178;5.900;2023-04-06T02:45:37;7.50;;;5.20;;
50337;SDS011;46221;51.178;5.900;2023-04-06T02:48:03;6.68;;;4.57;;
50337;SDS011;46221;51.178;5.900;2023-04-06T02:50:30;6.95;;;4.75;;
50337;SDS011;46221;51.178;5.900;2023-04-06T02:52:56;7.72;;;4.97;;
50337;SDS011;46221;51.178;5.900;2023-04-06T02:55:23;8.07;;;5.65;;
50337;SDS011;46221;51.178;5.900;2023-04-06T02:57:49;8.30;;;5.13;;
50337;SDS011;46221;51.178;5.900;2023-04-06T03:00:15;8.95;;;5.40;;
50337;SDS011;46221;51.178;5.900;2023-04-06T03:02:42;9.25;;;6.07;;
50337;SDS011;46221;51.178;5.900;2023-04-06T03:05:08;7.38;;;5.25;;
50337;SDS011;46221;51.178;5.900;2023-04-06T03:07:35;6.95;;;5.20;;
50337;SDS011;46221;51.178;5.900;2023-04-06T03:10:01;7.88;;;5.28;;
50337;SDS011;46221;51.178;5.900;2023-04-06T03:12:27;6.35;;;4.80;;
50337;SDS011;46221;51.178;5.900;2023-04-06T03:14:53;9.10;;;5.50;;
50337;SDS011;46221;51.178;5.900;2023-04-06T03:17:20;7.32;;;5.60;;
50337;SDS011;46221;51.178;5.900;2023-04-06T03:19:46;6.53;;;5.15;;
50337;SDS011;46221;51.178;5.900;2023-04-06T03:22:13;7.68;;;4.72;;
50337;SDS011;46221;51.178;5.900;2023-04-06T03:24:39;8.85;;;5.68;;
50337;SDS011;46221;51.178;5.900;2023-04-06T03:27:05;7.65;;;5.70;;
50337;SDS011;46221;51.178;5.900;2023-04-06T03:29:32;7.53;;;5.30;;
50337;SDS011;46221;51.178;5.900;2023-04-06T03:31:58;8.18;;;5.70;;
50337;SDS011;46221;51.178;5.900;2023-04-06T03:34:25;8.18;;;5.50;;
50337;SDS011;46221;51.178;5.900;2023-04-06T03:36:51;9.77;;;5.30;;
50337;SDS011;46221;51.178;5.900;2023-04-06T03:39:34;7.72;;;5.13;;
50337;SDS011;46221;51.178;5.900;2023-04-06T03:42:01;9.05;;;5.90;;
50337;SDS011;46221;51.178;5.900;2023-04-06T03:44:27;8.48;;;6.00;;
50337;SDS011;46221;51.178;5.900;2023-04-06T03:46:53;8.80;;;5.47;;
50337;SDS011;46221;51.178;5.900;2023-04-06T03:49:20;7.40;;;5.38;;
50337;SDS011;46221;51.178;5.900;2023-04-06T03:51:46;7.90;;;5.60;;
50337;SDS011;46221;51.178;5.900;2023-04-06T03:54:13;8.25;;;5.80;;
50337;SDS011;46221;51.178;5.900;2023-04-06T03:56:39;7.93;;;5.25;;
50337;SDS011;46221;51.178;5.900;2023-04-06T03:59:05;7.13;;;5.40;;
50337;SDS011;46221;51.178;5.900;2023-04-06T04:01:32;7.53;;;4.93;;
50337;SDS011;46221;51.178;5.900;2023-04-06T04:03:59;7.57;;;5.43;;
50337;SDS011;46221;51.178;5.900;2023-04-06T04:06:25;9.38;;;5.53;;
50337;SDS011;46221;51.178;5.900;2023-04-06T04:08:52;7.78;;;5.63;;
50337;SDS011;46221;51.178;5.900;2023-04-06T04:11:18;8.77;;;6.10;;
50337;SDS011;46221;51.178;5.900;2023-04-06T04:13:45;6.97;;;5.72;;
50337;SDS011;46221;51.178;5.900;2023-04-06T04:16:11;9.40;;;5.43;;
50337;SDS011;46221;51.178;5.900;2023-04-06T04:18:38;8.40;;;5.53;;
50337;SDS011;46221;51.178;5.900;2023-04-06T04:21:04;6.70;;;5.18;;
50337;SDS011;46221;51.178;5.900;2023-04-06T04:23:31;8.27;;;5.28;;
50337;SDS011;46221;51.178;5.900;2023-04-06T04:25:57;8.50;;;5.72;;
50337;SDS011;46221;51.178;5.900;2023-04-06T04:28:23;7.53;;;5.55;;
50337;SDS011;46221;51.178;5.900;2023-04-06T04:30:49;7.85;;;5.60;;
50337;SDS011;46221;51.178;5.900;2023-04-06T04:33:16;9.32;;;5.30;;
50337;SDS011;46221;51.178;5.900;2023-04-06T04:35:42;7.25;;;5.32;;
50337;SDS011;46221;51.178;5.900;2023-04-06T04:38:09;7.60;;;5.53;;
50337;SDS011;46221;51.178;5.900;2023-04-06T04:40:35;7.13;;;5.20;;
50337;SDS011;46221;51.178;5.900;2023-04-06T04:43:01;8.13;;;5.32;;
50337;SDS011;46221;51.178;5.900;2023-04-06T04:45:28;7.32;;;5.07;;
50337;SDS011;46221;51.178;5.900;2023-04-06T04:47:54;7.45;;;5.25;;
50337;SDS011;46221;51.178;5.900;2023-04-06T04:50:21;8.23;;;5.43;;
50337;SDS011;46221;51.178;5.900;2023-04-06T04:52:49;8.70;;;5.35;;
50337;SDS011;46221;51.178;5.900;2023-04-06T04:55:15;7.47;;;5.30;;
50337;SDS011;46221;51.178;5.900;2023-04-06T04:57:42;8.15;;;5.57;;
50337;SDS011;46221;51.178;5.900;2023-04-06T05:00:08;8.57;;;5.97;;
50337;SDS011;46221;51.178;5.900;2023-04-06T05:02:35;8.95;;;6.05;;
50337;SDS011;46221;51.178;5.900;2023-04-06T05:05:02;8.70;;;5.45;;
50337;SDS011;46221;51.178;5.900;2023-04-06T05:07:28;7.47;;;5.72;;
50337;SDS011;46221;51.178;5.900;2023-04-06T05:09:55;9.77;;;6.20;;
50337;SDS011;46221;51.178;5.900;2023-04-06T05:12:21;7.57;;;5.72;;
50337;SDS011;46221;51.178;5.900;2023-04-06T05:14:48;8.18;;;5.93;;
50337;SDS011;46221;51.178;5.900;2023-04-06T05:17:14;8.77;;;5.93;;
50337;SDS011;46221;51.178;5.900;2023-04-06T05:19:41;7.60;;;5.55;;
50337;SDS011;46221;51.178;5.900;2023-04-06T05:22:08;8.15;;;5.90;;
50337;SDS011;46221;51.178;5.900;2023-04-06T05:24:34;8.32;;;5.75;;
50337;SDS011;46221;51.178;5.900;2023-04-06T05:27:01;9.25;;;5.97;;
50337;SDS011;46221;51.178;5.900;2023-04-06T05:29:27;8.65;;;5.70;;
50337;SDS011;46221;51.178;5.900;2023-04-06T05:31:54;7.88;;;5.32;;
50337;SDS011;46221;51.178;5.900;2023-04-06T05:34:21;7.28;;;5.60;;
50337;SDS011;46221;51.178;5.900;2023-04-06T05:36:47;7.63;;;5.80;;
50337;SDS011;46221;51.178;5.900;2023-04-06T05:39:14;7.90;;;4.90;;
50337;SDS011;46221;51.178;5.900;2023-04-06T05:41:40;7.20;;;4.93;;
50337;SDS011;46221;51.178;5.900;2023-04-06T05:44:06;8.75;;;5.10;;
50337;SDS011;46221;51.178;5.900;2023-04-06T05:46:32;12.60;;;5.43;;
50337;SDS011;46221;51.178;5.900;2023-04-06T05:48:59;8.88;;;5.15;;
50337;SDS011;46221;51.178;5.900;2023-04-06T05:51:25;11.73;;;4.78;;
50337;SDS011;46221;51.178;5.900;2023-04-06T05:53:53;9.55;;;4.78;;
50337;SDS011;46221;51.178;5.900;2023-04-06T05:56:19;10.63;;;5.03;;
50337;SDS011;46221;51.178;5.900;2023-04-06T05:58:45;8.13;;;4.40;;
50337;SDS011;46221;51.178;5.900;2023-04-06T06:01:12;10.25;;;5.40;;
50337;SDS011;46221;51.178;5.900;2023-04-06T06:03:38;9.95;;;4.70;;
50337;SDS011;46221;51.178;5.900;2023-04-06T06:06:05;8.57;;;4.95;;
50337;SDS011;46221;51.178;5.900;2023-04-06T06:08:31;7.53;;;4.80;;
50337;SDS011;46221;51.178;5.900;2023-04-06T06:10:58;7.40;;;4.80;;
50337;SDS011;46221;51.178;5.900;2023-04-06T06:13:24;7.47;;;4.55;;
50337;SDS011;46221;51.178;5.900;2023-04-06T06:15:51;7.03;;;4.50;;
50337;SDS011;46221;51.178;5.900;2023-04-06T06:18:17;6.07;;;4.57;;
50337;SDS011;46221;51.178;5.900;2023-04-06T06:20:44;5.90;;;4.18;;
50337;SDS011;46221;51.178;5.900;2023-04-06T06:23:10;7.20;;;4.70;;
50337;SDS011;46221;51.178;5.900;2023-04-06T06:25:36;6.63;;;4.53;;
50337;SDS011;46221;51.178;5.900;2023-04-06T06:28:03;8.20;;;4.85;;
50337;SDS011;46221;51.178;5.900;2023-04-06T06:30:29;8.05;;;4.05;;
50337;SDS011;46221;51.178;5.900;2023-04-06T06:32:56;7.38;;;4.15;;
50337;SDS011;46221;51.178;5.900;2023-04-06T06:35:22;7.55;;;4.20;;
50337;SDS011;46221;51.178;5.900;2023-04-06T06:37:48;6.57;;;4.18;;
50337;SDS011;46221;51.178;5.900;2023-04-06T06:40:15;7.97;;;4.30;;
50337;SDS011;46221;51.178;5.900;2023-04-06T06:42:43;7.47;;;4.13;;
50337;SDS011;46221;51.178;5.900;2023-04-06T06:45:10;7.28;;;4.10;;
50337;SDS011;46221;51.178;5.900;2023-04-06T06:47:37;8.25;;;4.43;;
50337;SDS011;46221;51.178;5.900;2023-04-06T06:50:03;9.50;;;4.05;;
50337;SDS011;46221;51.178;5.900;2023-04-06T06:52:30;5.82;;;3.85;;
50337;SDS011;46221;51.178;5.900;2023-04-06T06:54:56;7.90;;;3.63;;
50337;SDS011;46221;51.178;5.900;2023-04-06T06:57:23;7.88;;;4.30;;
50337;SDS011;46221;51.178;5.900;2023-04-06T06:59:49;6.05;;;3.90;;
50337;SDS011;46221;51.178;5.900;2023-04-06T07:02:15;6.65;;;3.97;;
50337;SDS011;46221;51.178;5.900;2023-04-06T07:04:42;7.35;;;4.38;;
50337;SDS011;46221;51.178;5.900;2023-04-06T07:07:08;5.47;;;3.90;;
50337;SDS011;46221;51.178;5.900;2023-04-06T07:09:35;7.38;;;4.15;;
50337;SDS011;46221;51.178;5.900;2023-04-06T07:12:01;5.38;;;3.63;;
50337;SDS011;46221;51.178;5.900;2023-04-06T07:14:28;8.27;;;4.53;;
50337;SDS011;46221;51.178;5.900;2023-04-06T07:16:54;6.47;;;3.95;;
50337;SDS011;46221;51.178;5.900;2023-04-06T07:19:21;6.10;;;4.22;;
50337;SDS011;46221;51.178;5.900;2023-04-06T07:21:47;6.82;;;4.22;;
50337;SDS011;46221;51.178;5.900;2023-04-06T07:24:15;6.03;;;4.05;;
50337;SDS011;46221;51.178;5.900;2023-04-06T07:26:42;5.90;;;3.80;;
50337;SDS011;46221;51.178;5.900;2023-04-06T07:29:08;9.20;;;4.57;;
50337;SDS011;46221;51.178;5.900;2023-04-06T07:31:34;6.30;;;4.03;;
50337;SDS011;46221;51.178;5.900;2023-04-06T07:34:02;6.88;;;4.15;;
50337;SDS011;46221;51.178;5.900;2023-04-06T07:36:28;6.20;;;3.50;;
50337;SDS011;46221;51.178;5.900;2023-04-06T07:38:54;8.07;;;4.03;;
50337;SDS011;46221;51.178;5.900;2023-04-06T07:41:21;6.35;;;3.80;;
50337;SDS011;46221;51.178;5.900;2023-04-06T07:43:47;6.70;;;4.40;;
50337;SDS011;46221;51.178;5.900;2023-04-06T07:46:14;7.25;;;4.07;;
50337;SDS011;46221;51.178;5.900;2023-04-06T07:48:40;6.22;;;3.60;;
50337;SDS011;46221;51.178;5.900;2023-04-06T07:51:07;7.63;;;4.55;;
50337;SDS011;46221;51.178;5.900;2023-04-06T07:53:33;6.00;;;3.88;;
50337;SDS011;46221;51.178;5.900;2023-04-06T07:55:59;6.72;;;4.25;;
50337;SDS011;46221;51.178;5.900;2023-04-06T07:58:26;6.80;;;4.43;;
50337;SDS011;46221;51.178;5.900;2023-04-06T08:00:52;6.15;;;4.10;;
50337;SDS011;46221;51.178;5.900;2023-04-06T08:03:18;6.45;;;3.90;;
50337;SDS011;46221;51.178;5.900;2023-04-06T08:05:47;6.47;;;4.10;;
50337;SDS011;46221;51.178;5.900;2023-04-06T08:08:14;6.03;;;3.58;;
50337;SDS011;46221;51.178;5.900;2023-04-06T08:10:40;5.88;;;3.63;;
50337;SDS011;46221;51.178;5.900;2023-04-06T08:13:06;7.13;;;4.05;;
50337;SDS011;46221;51.178;5.900;2023-04-06T08:15:34;6.88;;;3.90;;
50337;SDS011;46221;51.178;5.900;2023-04-06T08:18:01;4.70;;;3.40;;
50337;SDS011;46221;51.178;5.900;2023-04-06T08:20:27;5.15;;;3.85;;
50337;SDS011;46221;51.178;5.900;2023-04-06T08:22:53;5.97;;;3.92;;
50337;SDS011;46221;51.178;5.900;2023-04-06T08:25:19;6.22;;;3.63;;
50337;SDS011;46221;51.178;5.900;2023-04-06T08:27:46;5.22;;;4.00;;
50337;SDS011;46221;51.178;5.900;2023-04-06T08:30:12;6.95;;;3.83;;
50337;SDS011;46221;51.178;5.900;2023-04-06T08:32:41;7.65;;;3.67;;
50337;SDS011;46221;51.178;5.900;2023-04-06T08:35:08;5.15;;;3.65;;
50337;SDS011;46221;51.178;5.900;2023-04-06T08:37:35;12.52;;;4.07;;
50337;SDS011;46221;51.178;5.900;2023-04-06T08:40:01;5.25;;;3.50;;
50337;SDS011;46221;51.178;5.900;2023-04-06T08:42:28;5.93;;;4.43;;
50337;SDS011;46221;51.178;5.900;2023-04-06T08:44:57;8.05;;;4.03;;
50337;SDS011;46221;51.178;5.900;2023-04-06T08:47:24;7.68;;;3.60;;
50337;SDS011;46221;51.178;5.900;2023-04-06T08:49:50;5.40;;;3.67;;
50337;SDS011;46221;51.178;5.900;2023-04-06T08:52:20;6.47;;;4.07;;
50337;SDS011;46221;51.178;5.900;2023-04-06T08:54:46;6.20;;;3.85;;
50337;SDS011;46221;51.178;5.900;2023-04-06T08:57:13;5.60;;;4.03;;
50337;SDS011;46221;51.178;5.900;2023-04-06T08:59:40;7.03;;;4.43;;
50337;SDS011;46221;51.178;5.900;2023-04-06T09:02:07;7.55;;;4.93;;
50337;SDS011;46221;51.178;5.900;2023-04-06T09:04:39;8.07;;;4.28;;
50337;SDS011;46221;51.178;5.900;2023-04-06T09:07:06;6.32;;;4.13;;
50337;SDS011;46221;51.178;5.900;2023-04-06T09:09:33;6.88;;;4.55;;
50337;SDS011;46221;51.178;5.900;2023-04-06T09:11:59;7.15;;;4.47;;
50337;SDS011;46221;51.178;5.900;2023-04-06T09:17:01;5.57;;;4.05;;
50337;SDS011;46221;51.178;5.900;2023-04-06T09:19:28;7.30;;;4.45;;
50337;SDS011;46221;51.178;5.900;2023-04-06T09:22:01;8.00;;;4.47;;
50337;SDS011;46221;51.178;5.900;2023-04-06T09:24:27;6.25;;;4.50;;
50337;SDS011;46221;51.178;5.900;2023-04-06T09:26:53;6.05;;;4.05;;
50337;SDS011;46221;51.178;5.900;2023-04-06T09:29:23;7.00;;;5.13;;
50337;SDS011;46221;51.178;5.900;2023-04-06T09:31:50;7.47;;;4.65;;
50337;SDS011;46221;51.178;5.900;2023-04-06T09:34:20;7.43;;;4.57;;
50337;SDS011;46221;51.178;5.900;2023-04-06T09:36:47;6.32;;;3.92;;
50337;SDS011;46221;51.178;5.900;2023-04-06T09:39:13;7.90;;;4.57;;
50337;SDS011;46221;51.178;5.900;2023-04-06T09:41:40;6.75;;;4.18;;
50337;SDS011;46221;51.178;5.900;2023-04-06T09:44:07;6.40;;;3.97;;
50337;SDS011;46221;51.178;5.900;2023-04-06T09:46:34;6.43;;;4.38;;
50337;SDS011;46221;51.178;5.900;2023-04-06T09:51:48;7.35;;;4.22;;
50337;SDS011;46221;51.178;5.900;2023-04-06T09:54:23;6.43;;;4.43;;
50337;SDS011;46221;51.178;5.900;2023-04-06T09:57:01;7.82;;;4.45;;
50337;SDS011;46221;51.178;5.900;2023-04-06T10:02:02;5.85;;;4.07;;
50337;SDS011;46221;51.178;5.900;2023-04-06T10:04:37;7.15;;;4.35;;
50337;SDS011;46221;51.178;5.900;2023-04-06T10:07:07;6.60;;;4.10;;
50337;SDS011;46221;51.178;5.900;2023-04-06T10:09:34;5.80;;;3.95;;
50337;SDS011;46221;51.178;5.900;2023-04-06T10:12:03;6.25;;;4.53;;
50337;SDS011;46221;51.178;5.900;2023-04-06T10:14:30;6.18;;;3.85;;
50337;SDS011;46221;51.178;5.900;2023-04-06T10:16:56;6.65;;;4.10;;
50337;SDS011;46221;51.178;5.900;2023-04-06T10:19:25;6.10;;;3.83;;
50337;SDS011;46221;51.178;5.900;2023-04-06T10:21:53;8.10;;;5.18;;
50337;SDS011;46221;51.178;5.900;2023-04-06T10:24:20;9.07;;;4.95;;
50337;SDS011;46221;51.178;5.900;2023-04-06T10:26:57;6.75;;;3.97;;
50337;SDS011;46221;51.178;5.900;2023-04-06T10:29:24;5.43;;;4.00;;
50337;SDS011;46221;51.178;5.900;2023-04-06T10:31:50;5.78;;;4.05;;
50337;SDS011;46221;51.178;5.900;2023-04-06T10:34:19;5.07;;;3.53;;
50337;SDS011;46221;51.178;5.900;2023-04-06T10:36:45;5.25;;;3.63;;
50337;SDS011;46221;51.178;5.900;2023-04-06T10:39:12;7.00;;;4.40;;
50337;SDS011;46221;51.178;5.900;2023-04-06T10:41:42;5.40;;;3.97;;
50337;SDS011;46221;51.178;5.900;2023-04-06T10:44:16;6.55;;;4.03;;
50337;SDS011;46221;51.178;5.900;2023-04-06T10:46:51;6.95;;;3.60;;
50337;SDS011;46221;51.178;5.900;2023-04-06T10:49:18;5.18;;;3.95;;
50337;SDS011;46221;51.178;5.900;2023-04-06T10:51:44;5.60;;;4.25;;
50337;SDS011;46221;51.178;5.900;2023-04-06T10:54:10;6.25;;;4.20;;
50337;SDS011;46221;51.178;5.900;2023-04-06T10:56:37;5.35;;;3.60;;
50337;SDS011;46221;51.178;5.900;2023-04-06T10:59:05;6.53;;;3.78;;
50337;SDS011;46221;51.178;5.900;2023-04-06T11:01:32;6.57;;;4.20;;
50337;SDS011;46221;51.178;5.900;2023-04-06T11:03:58;5.45;;;3.85;;
50337;SDS011;46221;51.178;5.900;2023-04-06T11:06:26;5.40;;;3.50;;
50337;SDS011;46221;51.178;5.900;2023-04-06T11:08:53;5.30;;;3.50;;
50337;SDS011;46221;51.178;5.900;2023-04-06T11:11:21;5.20;;;3.50;;
50337;SDS011;46221;51.178;5.900;2023-04-06T11:14:06;5.78;;;3.85;;
50337;SDS011;46221;51.178;5.900;2023-04-06T11:16:35;5.85;;;3.17;;
50337;SDS011;46221;51.178;5.900;2023-04-06T11:19:03;4.85;;;3.30;;
50337;SDS011;46221;51.178;5.900;2023-04-06T11:24:06;5.68;;;2.97;;
50337;SDS011;46221;51.178;5.900;2023-04-06T11:26:36;5.75;;;2.95;;
50337;SDS011;46221;51.178;5.900;2023-04-06T11:29:02;4.10;;;2.75;;
50337;SDS011;46221;51.178;5.900;2023-04-06T11:31:29;5.28;;;3.17;;
50337;SDS011;46221;51.178;5.900;2023-04-06T11:33:58;4.60;;;3.13;;
50337;SDS011;46221;51.178;5.900;2023-04-06T11:36:27;4.78;;;2.75;;
50337;SDS011;46221;51.178;5.900;2023-04-06T11:38:53;5.25;;;3.38;;
50337;SDS011;46221;51.178;5.900;2023-04-06T11:41:22;5.28;;;3.60;;
50337;SDS011;46221;51.178;5.900;2023-04-06T11:43:49;4.18;;;3.20;;
50337;SDS011;46221;51.178;5.900;2023-04-06T11:46:17;5.63;;;3.58;;
50337;SDS011;46221;51.178;5.900;2023-04-06T11:48:44;4.38;;;3.25;;
50337;SDS011;46221;51.178;5.900;2023-04-06T11:51:10;4.35;;;2.92;;
50337;SDS011;46221;51.178;5.900;2023-04-06T11:53:43;6.82;;;3.58;;
50337;SDS011;46221;51.178;5.900;2023-04-06T11:56:11;4.95;;;2.75;;
50337;SDS011;46221;51.178;5.900;2023-04-06T11:58:37;4.47;;;3.30;;
50337;SDS011;46221;51.178;5.900;2023-04-06T12:01:04;6.07;;;3.85;;
50337;SDS011;46221;51.178;5.900;2023-04-06T12:03:31;5.15;;;3.55;;
50337;SDS011;46221;51.178;5.900;2023-04-06T12:05:57;6.53;;;3.85;;
50337;SDS011;46221;51.178;5.900;2023-04-06T12:08:25;5.68;;;4.03;;
50337;SDS011;46221;51.178;5.900;2023-04-06T12:10:52;6.10;;;3.38;;
50337;SDS011;46221;51.178;5.900;2023-04-06T12:13:18;4.45;;;3.17;;
50337;SDS011;46221;51.178;5.900;2023-04-06T12:15:44;4.93;;;3.42;;
50337;SDS011;46221;51.178;5.900;2023-04-06T12:18:11;4.60;;;3.30;;
50337;SDS011;46221;51.178;5.900;2023-04-06T12:20:37;5.10;;;3.00;;
50337;SDS011;46221;51.178;5.900;2023-04-06T12:23:03;4.85;;;3.10;;
50337;SDS011;46221;51.178;5.900;2023-04-06T12:25:30;4.68;;;3.25;;
50337;SDS011;46221;51.178;5.900;2023-04-06T12:27:57;5.70;;;3.45;;
50337;SDS011;46221;51.178;5.900;2023-04-06T12:30:24;4.53;;;3.13;;
50337;SDS011;46221;51.178;5.900;2023-04-06T12:32:50;4.88;;;3.38;;
50337;SDS011;46221;51.178;5.900;2023-04-06T12:35:17;5.47;;;3.38;;
50337;SDS011;46221;51.178;5.900;2023-04-06T12:37:43;4.93;;;3.45;;
50337;SDS011;46221;51.178;5.900;2023-04-06T12:40:09;4.32;;;2.67;;
50337;SDS011;46221;51.178;5.900;2023-04-06T12:42:38;4.00;;;2.78;;
50337;SDS011;46221;51.178;5.900;2023-04-06T12:45:05;4.70;;;3.20;;
50337;SDS011;46221;51.178;5.900;2023-04-06T12:47:31;4.65;;;3.28;;
50337;SDS011;46221;51.178;5.900;2023-04-06T12:49:58;5.07;;;3.20;;
50337;SDS011;46221;51.178;5.900;2023-04-06T12:52:24;4.50;;;2.70;;
50337;SDS011;46221;51.178;5.900;2023-04-06T12:54:51;5.00;;;3.00;;
50337;SDS011;46221;51.178;5.900;2023-04-06T12:57:17;5.18;;;3.08;;
50337;SDS011;46221;51.178;5.900;2023-04-06T12:59:43;5.35;;;3.17;;
50337;SDS011;46221;51.178;5.900;2023-04-06T13:02:11;4.40;;;2.95;;
50337;SDS011;46221;51.178;5.900;2023-04-06T13:04:37;3.88;;;2.67;;
50337;SDS011;46221;51.178;5.900;2023-04-06T13:07:04;4.25;;;2.67;;
50337;SDS011;46221;51.178;5.900;2023-04-06T13:09:30;4.93;;;3.20;;
50337;SDS011;46221;51.178;5.900;2023-04-06T13:11:57;4.35;;;2.88;;
50337;SDS011;46221;51.178;5.900;2023-04-06T13:14:23;5.32;;;3.30;;
50337;SDS011;46221;51.178;5.900;2023-04-06T13:16:49;4.50;;;3.00;;
50337;SDS011;46221;51.178;5.900;2023-04-06T13:19:17;5.03;;;2.95;;
50337;SDS011;46221;51.178;5.900;2023-04-06T13:21:44;5.25;;;2.80;;
50337;SDS011;46221;51.178;5.900;2023-04-06T13:24:10;5.38;;;2.70;;
50337;SDS011;46221;51.178;5.900;2023-04-06T13:26:37;4.20;;;2.75;;
50337;SDS011;46221;51.178;5.900;2023-04-06T13:29:03;5.43;;;3.20;;
50337;SDS011;46221;51.178;5.900;2023-04-06T13:31:29;6.78;;;2.75;;
50337;SDS011;46221;51.178;5.900;2023-04-06T13:33:56;6.38;;;2.88;;
50337;SDS011;46221;51.178;5.900;2023-04-06T13:36:23;3.95;;;2.35;;
50337;SDS011;46221;51.178;5.900;2023-04-06T13:38:49;4.93;;;2.88;;
50337;SDS011;46221;51.178;5.900;2023-04-06T13:41:22;4.15;;;2.78;;
50337;SDS011;46221;51.178;5.900;2023-04-06T13:43:48;5.75;;;2.85;;
50337;SDS011;46221;51.178;5.900;2023-04-06T13:46:15;6.55;;;3.22;;
50337;SDS011;46221;51.178;5.900;2023-04-06T13:48:43;4.70;;;3.22;;
50337;SDS011;46221;51.178;5.900;2023-04-06T13:51:10;5.97;;;3.03;;
50337;SDS011;46221;51.178;5.900;2023-04-06T13:53:36;5.00;;;3.38;;
50337;SDS011;46221;51.178;5.900;2023-04-06T13:56:06;7.10;;;3.50;;
50337;SDS011;46221;51.178;5.900;2023-04-06T13:58:32;5.80;;;3.45;;
50337;SDS011;46221;51.178;5.900;2023-04-06T14:01:17;4.93;;;3.38;;
50337;SDS011;46221;51.178;5.900;2023-04-06T14:03:44;5.50;;;4.00;;
50337;SDS011;46221;51.178;5.900;2023-04-06T14:06:13;6.13;;;3.78;;
50337;SDS011;46221;51.178;5.900;2023-04-06T14:08:55;6.18;;;3.78;;
50337;SDS011;46221;51.178;5.900;2023-04-06T14:11:23;5.00;;;3.70;;
50337;SDS011;46221;51.178;5.900;2023-04-06T14:13:49;5.75;;;3.38;;
50337;SDS011;46221;51.178;5.900;2023-04-06T14:16:16;6.78;;;3.55;;
50337;SDS011;46221;51.178;5.900;2023-04-06T14:18:45;5.78;;;3.22;;
50337;SDS011;46221;51.178;5.900;2023-04-06T14:21:11;5.72;;;2.95;;
50337;SDS011;46221;51.178;5.900;2023-04-06T14:23:38;4.45;;;2.80;;
50337;SDS011;46221;51.178;5.900;2023-04-06T14:26:06;4.40;;;2.80;;
50337;SDS011;46221;51.178;5.900;2023-04-06T14:28:33;4.32;;;2.50;;
50337;SDS011;46221;51.178;5.900;2023-04-06T14:31:00;4.35;;;2.55;;
50337;SDS011;46221;51.178;5.900;2023-04-06T14:33:26;4.32;;;2.67;;
50337;SDS011;46221;51.178;5.900;2023-04-06T14:35:53;4.50;;;2.80;;
50337;SDS011;46221;51.178;5.900;2023-04-06T14:38:19;4.13;;;2.50;;
50337;SDS011;46221;51.178;5.900;2023-04-06T14:40:46;5.72;;;2.80;;
50337;SDS011;46221;51.178;5.900;2023-04-06T14:43:12;5.20;;;2.20;;
50337;SDS011;46221;51.178;5.900;2023-04-06T14:45:39;4.82;;;2.30;;
50337;SDS011;46221;51.178;5.900;2023-04-06T14:48:05;5.32;;;2.55;;
50337;SDS011;46221;51.178;5.900;2023-04-06T14:50:33;6.25;;;2.30;;
50337;SDS011;46221;51.178;5.900;2023-04-06T14:52:59;6.18;;;2.53;;
50337;SDS011;46221;51.178;5.900;2023-04-06T14:55:26;6.53;;;2.80;;
50337;SDS011;46221;51.178;5.900;2023-04-06T14:57:53;6.35;;;2.05;;
50337;SDS011;46221;51.178;5.900;2023-04-06T15:00:19;5.38;;;2.38;;